createdAt,value
2023-02-05T00:02:08.921Z,2.50
2023-02-05T00:05:11.897Z,4.77
2023-02-05T00:08:14.898Z,3.03
2023-02-05T00:11:19.345Z,2.70
2023-02-05T00:14:22.375Z,1.83
2023-02-05T00:17:25.430Z,1.80
2023-02-05T00:20:28.576Z,2.37
2023-02-05T00:23:31.690Z,2.87
2023-02-05T00:26:35.936Z,2.67
2023-02-05T00:29:39.167Z,2.80
2023-02-05T00:32:42.091Z,3.77
2023-02-05T00:35:45.693Z,1.70
2023-02-05T00:38:49.085Z,2.33
2023-02-05T00:41:53.843Z,4.20
2023-02-05T00:44:57.057Z,1.90
2023-02-05T00:47:59.946Z,2.00
2023-02-05T00:51:03.063Z,5.30
2023-02-05T00:54:06.138Z,3.90
2023-02-05T00:57:10.545Z,4.13
2023-02-05T01:00:15.014Z,4.23
2023-02-05T01:03:18.753Z,1.80
2023-02-05T01:06:22.109Z,1.80
2023-02-05T01:09:25.071Z,3.00
2023-02-05T01:12:29.379Z,2.60
2023-02-05T01:15:33.174Z,3.20
2023-02-05T01:18:36.345Z,2.33
2023-02-05T01:21:39.264Z,3.70
2023-02-05T01:24:42.180Z,1.70
2023-02-05T01:27:46.519Z,2.03
2023-02-05T01:30:49.854Z,2.87
2023-02-05T01:33:52.860Z,2.07
2023-02-05T01:36:55.836Z,3.50
2023-02-05T01:39:58.840Z,2.00
2023-02-05T01:43:03.093Z,2.73
2023-02-05T01:46:17.289Z,2.20
2023-02-05T01:49:24.250Z,1.63
2023-02-05T01:52:27.264Z,2.50
2023-02-05T01:55:31.653Z,2.30
2023-02-05T01:58:41.975Z,2.77
2023-02-05T02:01:45.264Z,1.90
2023-02-05T02:04:51.091Z,2.60
2023-02-05T02:07:54.051Z,3.33
2023-02-05T02:10:59.220Z,1.47
2023-02-05T02:14:06.363Z,2.27
2023-02-05T02:17:11.556Z,3.60
2023-02-05T02:20:17.362Z,1.30
2023-02-05T02:23:32.026Z,2.03
2023-02-05T02:26:49.223Z,3.00
2023-02-05T02:29:58.436Z,1.30
2023-02-05T02:33:08.685Z,1.30
2023-02-05T02:36:17.473Z,1.67
2023-02-05T02:39:24.137Z,2.83
2023-02-05T02:42:33.263Z,1.50
2023-02-05T02:45:47.264Z,2.43
2023-02-05T02:48:53.375Z,2.57
2023-02-05T02:51:59.016Z,2.07
2023-02-05T02:55:07.812Z,4.30
2023-02-05T02:58:15.047Z,3.20
2023-02-05T03:01:24.578Z,3.50
2023-02-05T03:04:31.949Z,5.07
2023-02-05T03:07:39.445Z,5.37
2023-02-05T03:10:47.300Z,8.30
2023-02-05T03:13:50.372Z,7.23
2023-02-05T03:16:55.359Z,10.03
2023-02-05T03:20:03.938Z,5.23
2023-02-05T03:23:06.847Z,4.20
2023-02-05T03:26:24.312Z,1.90
2023-02-05T03:29:31.451Z,1.53
2023-02-05T03:32:46.692Z,2.17
2023-02-05T03:35:59.550Z,1.80
2023-02-05T03:39:19.600Z,2.33
2023-02-05T03:42:35.413Z,1.50
2023-02-05T03:45:49.908Z,1.60
2023-02-05T03:49:07.996Z,2.73
2023-02-05T03:52:16.048Z,2.50
2023-02-05T03:55:21.054Z,1.60
2023-02-05T03:58:28.346Z,1.97
2023-02-05T04:01:32.066Z,3.23
2023-02-05T04:04:36.306Z,1.53
2023-02-05T04:07:39.420Z,1.40
2023-02-05T04:10:42.327Z,3.13
2023-02-05T04:13:45.224Z,1.40
2023-02-05T04:16:48.165Z,2.37
2023-02-05T04:19:52.432Z,1.93
2023-02-05T04:22:55.404Z,1.83
2023-02-05T04:25:58.511Z,3.57
2023-02-05T04:29:01.818Z,2.63
2023-02-05T04:32:04.976Z,2.07
2023-02-05T04:35:09.590Z,2.17
2023-02-05T04:38:12.548Z,2.50
2023-02-05T04:41:15.550Z,1.50
2023-02-05T04:44:18.468Z,1.53
2023-02-05T04:47:21.448Z,1.67
2023-02-05T04:50:25.854Z,1.83
2023-02-05T04:53:28.750Z,1.97
2023-02-05T04:56:31.782Z,2.97
2023-02-05T04:59:34.700Z,1.37
2023-02-05T05:02:37.650Z,3.67
2023-02-05T05:05:41.915Z,2.37
2023-02-05T05:08:44.962Z,2.57
2023-02-05T05:11:47.874Z,1.53
2023-02-05T05:14:50.810Z,2.23
2023-02-05T05:17:53.698Z,1.60
2023-02-05T05:20:58.012Z,2.00
2023-02-05T05:24:00.983Z,2.10
2023-02-05T05:27:04.269Z,2.30
2023-02-05T05:30:08.004Z,4.77
2023-02-05T05:33:11.186Z,1.77
2023-02-05T05:36:16.201Z,2.00
2023-02-05T05:39:36.859Z,2.87
2023-02-05T05:42:57.216Z,1.93
2023-02-05T05:46:00.368Z,3.00
2023-02-05T05:49:04.921Z,1.97
2023-02-05T05:52:09.203Z,2.43
2023-02-05T05:55:12.111Z,1.83
2023-02-05T05:58:15.495Z,1.77
2023-02-05T06:01:22.007Z,2.93
2023-02-05T06:04:25.005Z,1.87
2023-02-05T06:07:29.393Z,3.23
2023-02-05T06:10:33.570Z,2.47
2023-02-05T06:13:36.601Z,3.60
2023-02-05T06:16:41.140Z,2.13
2023-02-05T06:19:44.064Z,3.40
2023-02-05T06:22:48.366Z,2.47
2023-02-05T06:25:51.347Z,2.33
2023-02-05T06:28:57.103Z,3.33
2023-02-05T06:32:00.189Z,2.57
2023-02-05T06:35:03.155Z,2.03
2023-02-05T06:38:07.397Z,2.33
2023-02-05T06:41:10.334Z,1.93
2023-02-05T06:44:13.251Z,2.30
2023-02-05T06:47:16.381Z,2.53
2023-02-05T06:50:19.902Z,2.70
2023-02-05T06:53:24.558Z,2.30
2023-02-05T06:56:27.527Z,2.43
2023-02-05T06:59:30.467Z,2.93
2023-02-05T07:02:33.575Z,2.70
2023-02-05T07:05:36.779Z,2.90
2023-02-05T07:08:41.350Z,3.03
2023-02-05T07:11:44.249Z,2.97
2023-02-05T07:14:47.394Z,2.43
2023-02-05T07:17:51.230Z,4.80
2023-02-05T07:20:54.152Z,2.43
2023-02-05T07:23:58.403Z,3.23
2023-02-05T07:27:01.360Z,3.40
2023-02-05T07:30:04.864Z,3.57
2023-02-05T07:33:07.839Z,2.70
2023-02-05T07:36:13.425Z,2.67
2023-02-05T07:39:17.689Z,2.30
2023-02-05T07:42:20.748Z,3.27
2023-02-05T07:45:23.688Z,3.57
2023-02-05T07:48:27.007Z,3.17
2023-02-05T07:51:29.982Z,3.00
2023-02-05T07:54:34.257Z,2.50
2023-02-05T07:57:37.220Z,2.63
2023-02-05T08:00:40.401Z,2.13
2023-02-05T08:03:43.452Z,3.03
2023-02-05T08:06:46.372Z,3.57
2023-02-05T08:09:50.606Z,2.33
2023-02-05T08:12:53.506Z,4.27
2023-02-05T08:15:56.629Z,3.03
2023-02-05T08:18:59.741Z,2.70
2023-02-05T08:22:02.614Z,2.70
2023-02-05T08:25:08.933Z,2.67
2023-02-05T08:28:11.938Z,2.77
2023-02-05T08:31:17.761Z,3.50
2023-02-05T08:34:21.042Z,5.83
2023-02-05T08:37:24.005Z,2.40
2023-02-05T08:40:28.304Z,1.90
2023-02-05T08:43:31.259Z,2.30
2023-02-05T08:46:48.898Z,4.20
2023-02-05T08:49:52.569Z,2.23
2023-02-05T08:52:55.527Z,7.23
2023-02-05T08:56:01.687Z,2.33
2023-02-05T08:59:04.600Z,3.93
2023-02-05T09:02:07.554Z,4.17
2023-02-05T09:05:10.884Z,4.33
2023-02-05T09:08:13.781Z,3.37
2023-02-05T09:11:23.123Z,2.40
2023-02-05T09:14:26.031Z,2.67
2023-02-05T09:17:28.932Z,3.23
2023-02-05T09:20:31.860Z,3.47
2023-02-05T09:23:34.865Z,5.27
2023-02-05T09:26:39.111Z,2.73
2023-02-05T09:29:42.063Z,2.70
2023-02-05T09:32:45.995Z,3.30
2023-02-05T09:35:48.968Z,2.83
2023-02-05T09:39:05.021Z,2.80
2023-02-05T09:42:28.819Z,3.30
2023-02-05T09:45:40.939Z,4.13
2023-02-05T09:48:50.525Z,2.97
2023-02-05T09:52:00.499Z,2.50
2023-02-05T09:55:08.271Z,2.90
2023-02-05T09:58:17.128Z,3.20
2023-02-05T10:01:24.223Z,3.70
2023-02-05T10:04:27.728Z,3.13
2023-02-05T10:07:43.182Z,3.77
2023-02-05T10:10:49.053Z,2.40
2023-02-05T10:14:02.493Z,2.50
2023-02-05T10:17:29.377Z,3.53
2023-02-05T10:20:45.658Z,2.60
2023-02-05T10:24:04.807Z,3.33
2023-02-05T10:27:17.275Z,4.17
2023-02-05T10:30:27.599Z,4.70
2023-02-05T10:33:43.068Z,3.70
2023-02-05T10:36:50.112Z,2.83
2023-02-05T10:39:53.780Z,6.80
2023-02-05T10:43:02.555Z,3.53
2023-02-05T10:46:13.384Z,4.77
2023-02-05T10:49:21.159Z,3.60
2023-02-05T10:52:24.222Z,3.60
2023-02-05T10:55:27.164Z,3.50
2023-02-05T10:58:44.366Z,4.70
2023-02-05T11:01:49.685Z,3.23
2023-02-05T11:04:57.475Z,3.67
2023-02-05T11:08:00.441Z,3.33
2023-02-05T11:11:03.870Z,6.10
2023-02-05T11:14:08.356Z,3.60
2023-02-05T11:17:23.057Z,3.30
2023-02-05T11:20:30.865Z,4.50
2023-02-05T11:23:39.647Z,9.40
2023-02-05T11:26:43.322Z,2.70
2023-02-05T11:29:46.268Z,3.47
2023-02-05T11:32:50.528Z,3.00
2023-02-05T11:35:56.950Z,2.60
2023-02-05T11:39:00.147Z,3.77
2023-02-05T11:42:10.536Z,2.60
2023-02-05T11:45:19.688Z,5.77
2023-02-05T11:48:36.041Z,4.03
2023-02-05T11:51:44.491Z,3.23
2023-02-05T11:54:49.075Z,2.73
2023-02-05T11:58:00.130Z,3.10
2023-02-05T12:01:05.107Z,2.10
2023-02-05T12:04:20.162Z,5.00
2023-02-05T12:07:24.100Z,4.90
2023-02-05T12:10:37.729Z,5.90
2023-02-05T12:13:51.562Z,3.63
2023-02-05T12:17:03.282Z,3.70
2023-02-05T12:20:19.483Z,6.00
2023-02-05T12:23:31.245Z,2.80
2023-02-05T12:26:36.996Z,2.80
2023-02-05T12:29:57.419Z,3.47
2023-02-05T12:33:18.288Z,4.27
2023-02-05T12:36:44.149Z,3.13
2023-02-05T12:39:51.308Z,3.93
2023-02-05T12:43:01.609Z,3.57
2023-02-05T12:46:16.091Z,2.60
2023-02-05T12:49:33.646Z,3.10
2023-02-05T12:52:58.290Z,4.63
2023-02-05T12:56:22.222Z,3.30
2023-02-05T12:59:34.400Z,4.83
2023-02-05T13:02:44.366Z,4.47
2023-02-05T13:05:52.213Z,4.23
2023-02-05T13:09:01.859Z,4.53
2023-02-05T13:12:10.769Z,2.70
2023-02-05T13:15:18.589Z,4.23
2023-02-05T13:18:24.707Z,3.07
2023-02-05T13:21:46.940Z,3.83
2023-02-05T13:25:21.048Z,5.03
2023-02-05T13:28:43.154Z,3.67
2023-02-05T13:31:49.723Z,3.60
2023-02-05T13:34:54.731Z,3.30
2023-02-05T13:38:21.171Z,3.27
2023-02-05T13:41:38.583Z,2.97
2023-02-05T13:45:03.202Z,3.53
2023-02-05T13:48:23.188Z,3.27
2023-02-05T13:51:43.010Z,5.60
2023-02-05T13:55:21.198Z,3.17
2023-02-05T13:58:28.580Z,2.73
2023-02-05T14:01:37.726Z,4.87
2023-02-05T14:04:43.036Z,3.17
2023-02-05T14:07:49.595Z,3.50
2023-02-05T14:11:00.098Z,3.13
2023-02-05T14:14:24.322Z,4.60
2023-02-05T14:17:56.346Z,3.87
2023-02-05T14:20:59.360Z,4.87
2023-02-05T14:24:04.038Z,3.57
2023-02-05T14:27:42.994Z,4.93
2023-02-05T14:30:51.452Z,3.47
2023-02-05T14:33:54.443Z,3.37
2023-02-05T14:36:58.262Z,6.43
2023-02-05T14:40:15.508Z,5.20
2023-02-05T14:43:33.029Z,8.67
2023-02-05T14:46:43.033Z,4.03
2023-02-05T14:49:48.236Z,4.30
2023-02-05T14:52:54.145Z,4.30
2023-02-05T14:55:57.550Z,4.97
2023-02-05T14:59:06.987Z,4.43
2023-02-05T15:02:43.265Z,6.83
2023-02-05T15:05:54.243Z,3.30
2023-02-05T15:09:05.333Z,6.17
2023-02-05T15:12:32.665Z,6.37
2023-02-05T15:15:37.925Z,4.70
2023-02-05T15:18:42.120Z,4.07
2023-02-05T15:21:52.052Z,4.40
2023-02-05T15:24:55.535Z,4.87
2023-02-05T15:28:02.697Z,3.70
2023-02-05T15:31:16.048Z,5.50
2023-02-05T15:34:35.586Z,4.93
2023-02-05T15:37:44.183Z,4.00
2023-02-05T15:40:47.606Z,5.93
2023-02-05T15:44:01.695Z,4.17
2023-02-05T15:47:08.522Z,4.93
2023-02-05T15:50:14.683Z,3.63
2023-02-05T15:53:33.922Z,6.07
2023-02-05T15:56:41.311Z,3.27
2023-02-05T15:59:44.292Z,5.03
2023-02-05T16:02:54.594Z,5.80
2023-02-05T16:05:57.593Z,6.33
2023-02-05T16:09:01.863Z,6.27
2023-02-05T16:12:14.771Z,10.97
2023-02-05T16:15:17.734Z,8.07
2023-02-05T16:18:30.148Z,5.37
2023-02-05T16:21:37.066Z,10.67
2023-02-05T16:24:43.800Z,6.50
2023-02-05T16:27:50.602Z,7.30
2023-02-05T16:30:56.680Z,4.63
2023-02-05T16:34:02.542Z,5.83
2023-02-05T16:37:10.215Z,6.17
2023-02-05T16:40:14.923Z,6.23
2023-02-05T16:43:26.107Z,7.27
2023-02-05T16:46:30.508Z,5.70
2023-02-05T16:49:33.658Z,7.47
2023-02-05T16:52:38.048Z,7.93
2023-02-05T16:55:43.952Z,6.30
2023-02-05T16:58:50.599Z,7.67
2023-02-05T17:01:54.721Z,6.90
2023-02-05T17:04:59.334Z,7.87
2023-02-05T17:08:04.484Z,9.77
2023-02-05T17:11:32.072Z,14.43
2023-02-05T17:14:35.644Z,13.40
2023-02-05T17:17:49.312Z,9.77
2023-02-05T17:20:52.300Z,15.00
2023-02-05T17:23:57.185Z,14.03
2023-02-05T17:27:01.524Z,13.30
2023-02-05T17:30:07.252Z,16.50
2023-02-05T17:33:10.945Z,11.30
2023-02-05T17:36:16.597Z,14.70
2023-02-05T17:39:19.502Z,11.27
2023-02-05T17:42:25.894Z,14.60
2023-02-05T17:45:33.440Z,15.93
2023-02-05T17:48:37.412Z,11.73
2023-02-05T17:51:42.396Z,15.27
2023-02-05T17:54:46.402Z,15.30
2023-02-05T17:57:50.869Z,15.33
2023-02-05T18:00:54.529Z,15.10
2023-02-05T18:03:57.543Z,15.43
2023-02-05T18:07:01.683Z,14.70
2023-02-05T18:10:05.713Z,16.20
2023-02-05T18:13:10.072Z,17.97
2023-02-05T18:16:13.143Z,17.73
2023-02-05T18:19:16.139Z,15.37
2023-02-05T18:22:19.067Z,18.07
2023-02-05T18:25:21.997Z,14.37
2023-02-05T18:28:26.836Z,14.57
2023-02-05T18:31:29.910Z,14.40
2023-02-05T18:34:32.967Z,16.77
2023-02-05T18:37:37.310Z,17.23
2023-02-05T18:40:41.632Z,13.63
2023-02-05T18:43:46.185Z,17.73
2023-02-05T18:46:49.295Z,19.10
2023-02-05T18:49:52.290Z,15.53
2023-02-05T18:52:55.452Z,13.83
2023-02-05T18:56:02.520Z,16.00
2023-02-05T18:59:08.496Z,20.53
2023-02-05T19:02:11.808Z,17.47
2023-02-05T19:05:14.803Z,16.73
2023-02-05T19:08:17.713Z,15.07
2023-02-05T19:11:22.787Z,15.23
2023-02-05T19:14:27.686Z,20.53
2023-02-05T19:17:30.630Z,18.63
2023-02-05T19:20:35.506Z,17.87
2023-02-05T19:23:39.180Z,17.93
2023-02-05T19:26:44.057Z,19.10
2023-02-05T19:29:48.370Z,18.30
2023-02-05T19:32:51.325Z,17.70
2023-02-05T19:35:54.720Z,17.30
2023-02-05T19:38:57.972Z,20.10
2023-02-05T19:42:00.901Z,18.13
2023-02-05T19:45:05.595Z,18.90
2023-02-05T19:48:08.505Z,21.10
2023-02-05T19:51:13.267Z,19.47
2023-02-05T19:54:16.621Z,16.63
2023-02-05T19:57:19.539Z,18.40
2023-02-05T20:00:23.926Z,18.33
2023-02-05T20:03:28.897Z,19.27
2023-02-05T20:06:31.809Z,16.83
2023-02-05T20:09:34.729Z,19.97
2023-02-05T20:12:37.623Z,16.23
2023-02-05T20:15:41.964Z,19.90
2023-02-05T20:18:45.052Z,15.93
2023-02-05T20:21:48.440Z,16.83
2023-02-05T20:24:51.476Z,19.13
2023-02-05T20:27:54.426Z,16.63
2023-02-05T20:31:16.606Z,17.33
2023-02-05T20:34:22.410Z,16.27
2023-02-05T20:37:25.483Z,14.43
2023-02-05T20:40:28.474Z,18.63
2023-02-05T20:43:31.408Z,17.23
2023-02-05T20:46:36.136Z,18.60
2023-02-05T20:49:41.437Z,15.70
2023-02-05T20:52:44.331Z,18.47
2023-02-05T20:55:47.321Z,17.00
2023-02-05T20:58:50.370Z,16.20
2023-02-05T21:01:55.097Z,16.43
2023-02-05T21:04:58.028Z,18.50
2023-02-05T21:08:00.928Z,15.67
2023-02-05T21:11:03.894Z,15.53
2023-02-05T21:14:07.583Z,15.07
2023-02-05T21:17:11.832Z,18.23
2023-02-05T21:20:14.775Z,16.10
2023-02-05T21:23:18.093Z,17.23
2023-02-05T21:26:22.133Z,16.73
2023-02-05T21:29:25.094Z,16.63
2023-02-05T21:32:30.544Z,16.97
2023-02-05T21:35:33.527Z,17.57
2023-02-05T21:38:37.144Z,16.10
2023-02-05T21:41:40.295Z,16.13
2023-02-05T21:44:44.141Z,18.30
2023-02-05T21:47:48.388Z,13.83
2023-02-05T21:50:51.298Z,15.67
2023-02-05T21:53:57.205Z,15.67
2023-02-05T21:57:00.251Z,16.57
2023-02-05T22:00:04.151Z,17.27
2023-02-05T22:03:08.435Z,18.00
2023-02-05T22:06:11.350Z,17.90
2023-02-05T22:09:16.534Z,18.30
2023-02-05T22:12:19.466Z,15.93
2023-02-05T22:15:22.407Z,16.00
2023-02-05T22:18:26.664Z,16.00
2023-02-05T22:21:31.942Z,14.10
2023-02-05T22:24:34.978Z,15.50
2023-02-05T22:27:38.073Z,16.20
2023-02-05T22:30:41.857Z,18.83
2023-02-05T22:33:47.917Z,14.93
2023-02-05T22:36:51.054Z,17.40
2023-02-05T22:39:53.971Z,14.77
2023-02-05T22:42:57.456Z,15.97
2023-02-05T22:46:04.958Z,15.90
2023-02-05T22:49:11.118Z,14.37
2023-02-05T22:52:14.028Z,15.87
2023-02-05T22:55:17.049Z,17.17
2023-02-05T22:58:19.999Z,15.90
2023-02-05T23:01:25.212Z,16.77
2023-02-05T23:04:29.489Z,15.43
2023-02-05T23:07:33.094Z,14.13
2023-02-05T23:10:36.023Z,18.63
2023-02-05T23:13:39.150Z,13.70
2023-02-05T23:16:44.762Z,15.57
2023-02-05T23:19:52.064Z,18.37
2023-02-05T23:22:55.085Z,15.03
2023-02-05T23:25:57.979Z,18.87
2023-02-05T23:29:01.644Z,13.97
2023-02-05T23:32:04.912Z,16.20
2023-02-05T23:35:09.472Z,14.53
2023-02-05T23:38:12.387Z,18.13
2023-02-05T23:41:35.091Z,14.37
2023-02-05T23:44:38.274Z,15.93
2023-02-05T23:47:41.239Z,13.67
2023-02-05T23:50:46.032Z,17.63
2023-02-05T23:53:48.997Z,13.10
2023-02-05T23:56:52.194Z,11.37
2023-02-05T23:59:55.130Z,11.20
